createdAt,value
2018-06-28T00:00:52.026Z,83.80
2018-06-28T00:03:20.538Z,85.10
2018-06-28T00:05:49.285Z,86.40
2018-06-28T00:08:17.785Z,88.30
2018-06-28T00:10:46.407Z,89.50
2018-06-28T00:13:14.883Z,90.60
2018-06-28T00:15:43.362Z,90.30
2018-06-28T00:18:11.863Z,91.10
2018-06-28T00:20:40.345Z,92.90
2018-06-28T00:23:08.818Z,93.90
2018-06-28T00:25:37.301Z,94.40
2018-06-28T00:28:05.787Z,96.10
2018-06-28T00:30:34.252Z,96.90
2018-06-28T00:33:02.879Z,97.80
2018-06-28T00:35:31.304Z,98.60
2018-06-28T00:37:59.739Z,99.70
2018-06-28T00:40:28.235Z,99.90
2018-06-28T00:42:56.703Z,99.90
2018-06-28T00:45:25.158Z,99.90
2018-06-28T00:47:53.634Z,99.90
2018-06-28T00:50:22.105Z,99.90
2018-06-28T00:52:50.644Z,99.90
2018-06-28T00:55:19.182Z,99.90
2018-06-28T00:57:47.690Z,99.90
2018-06-28T01:00:16.192Z,99.90
2018-06-28T01:02:44.693Z,99.90
2018-06-28T01:05:13.172Z,99.90
2018-06-28T01:07:41.654Z,99.90
2018-06-28T01:10:10.199Z,99.90
2018-06-28T01:12:38.675Z,99.90
2018-06-28T01:15:07.226Z,99.90
2018-06-28T01:17:35.734Z,99.90
2018-06-28T01:20:04.598Z,99.90
2018-06-28T01:22:33.051Z,99.90
2018-06-28T01:25:01.557Z,99.90
2018-06-28T01:27:30.057Z,99.90
2018-06-28T01:29:58.544Z,99.90
2018-06-28T01:32:27.061Z,99.90
2018-06-28T01:34:55.556Z,99.90
2018-06-28T01:37:24.022Z,99.90
2018-06-28T01:39:52.526Z,99.90
2018-06-28T01:43:31.846Z,99.90
2018-06-28T01:46:00.630Z,99.90
2018-06-28T01:48:29.093Z,99.90
2018-06-28T01:50:57.900Z,99.90
2018-06-28T01:53:26.888Z,99.90
2018-06-28T01:55:55.466Z,99.90
2018-06-28T01:58:23.953Z,99.90
2018-06-28T02:00:52.581Z,99.90
2018-06-28T02:03:21.102Z,99.90
2018-06-28T02:05:50.571Z,99.90
2018-06-28T02:08:19.460Z,99.90
2018-06-28T02:10:47.975Z,99.90
2018-06-28T02:13:16.683Z,99.90
2018-06-28T02:15:45.191Z,99.90
2018-06-28T02:18:13.720Z,99.90
2018-06-28T02:20:42.221Z,99.90
2018-06-28T02:23:10.703Z,99.90
2018-06-28T02:25:39.187Z,99.90
2018-06-28T02:28:07.659Z,99.90
2018-06-28T02:30:36.152Z,99.90
2018-06-28T02:33:04.637Z,99.90
2018-06-28T02:35:33.120Z,99.90
2018-06-28T02:38:01.614Z,99.90
2018-06-28T02:40:30.108Z,99.90
2018-06-28T02:42:58.586Z,99.90
2018-06-28T02:45:27.071Z,99.90
2018-06-28T02:47:55.565Z,99.90
2018-06-28T02:50:24.034Z,99.90
2018-06-28T02:52:52.528Z,99.90
2018-06-28T02:55:20.972Z,99.90
2018-06-28T02:57:49.433Z,99.90
2018-06-28T03:00:17.951Z,99.90
2018-06-28T03:02:46.424Z,99.90
2018-06-28T03:05:14.907Z,99.90
2018-06-28T03:07:43.371Z,99.90
2018-06-28T03:10:11.851Z,99.90
2018-06-28T03:12:40.314Z,99.90
2018-06-28T03:15:08.846Z,99.90
2018-06-28T03:17:37.347Z,99.90
2018-06-28T03:20:06.086Z,99.90
2018-06-28T03:22:34.639Z,99.90
2018-06-28T03:25:03.104Z,99.90
2018-06-28T03:27:31.545Z,99.90
2018-06-28T03:30:00.020Z,99.90
2018-06-28T03:32:28.495Z,99.90
2018-06-28T03:34:56.984Z,99.90
2018-06-28T03:37:25.458Z,99.90
2018-06-28T03:39:53.912Z,99.90
2018-06-28T03:42:22.405Z,99.90
2018-06-28T03:44:50.874Z,99.90
2018-06-28T03:47:19.434Z,99.90
2018-06-28T03:49:47.892Z,99.90
2018-06-28T03:52:16.393Z,99.90
2018-06-28T03:54:44.843Z,99.90
2018-06-28T03:57:13.358Z,99.90
2018-06-28T03:59:41.882Z,99.90
2018-06-28T04:02:10.353Z,99.90
2018-06-28T04:04:38.818Z,99.90
2018-06-28T04:07:07.344Z,99.90
2018-06-28T04:09:35.810Z,99.90
2018-06-28T04:12:04.324Z,99.90
2018-06-28T04:14:32.814Z,99.90
2018-06-28T04:17:01.274Z,99.90
2018-06-28T04:19:29.728Z,99.90
2018-06-28T04:21:58.225Z,99.90
2018-06-28T04:24:26.703Z,99.90
2018-06-28T04:26:55.152Z,99.90
2018-06-28T04:29:23.643Z,99.90
2018-06-28T04:31:52.137Z,99.90
2018-06-28T04:34:20.593Z,99.90
2018-06-28T04:36:49.121Z,99.90
2018-06-28T04:39:17.572Z,99.90
2018-06-28T04:41:46.040Z,99.90
2018-06-28T04:44:14.527Z,99.90
2018-06-28T04:46:42.999Z,99.90
2018-06-28T04:49:11.484Z,95.80
2018-06-28T04:51:39.975Z,94.60
2018-06-28T04:54:08.471Z,91.80
2018-06-28T04:56:36.926Z,90.20
2018-06-28T04:59:05.670Z,89.40
2018-06-28T05:01:34.145Z,88.30
2018-06-28T05:04:02.605Z,88.00
2018-06-28T05:06:31.097Z,87.90
2018-06-28T05:08:59.544Z,86.30
2018-06-28T05:11:27.978Z,85.70
2018-06-28T05:13:56.504Z,85.10
2018-06-28T05:16:24.996Z,85.40
2018-06-28T05:18:53.464Z,84.20
2018-06-28T05:21:21.940Z,83.20
2018-06-28T05:23:50.376Z,83.00
2018-06-28T05:26:18.818Z,83.10
2018-06-28T05:28:47.362Z,82.60
2018-06-28T05:31:15.825Z,82.20
2018-06-28T05:33:44.269Z,80.80
2018-06-28T05:36:12.739Z,80.70
2018-06-28T05:38:41.179Z,78.70
2018-06-28T05:41:09.634Z,78.10
2018-06-28T05:43:38.133Z,76.10
2018-06-28T05:46:06.601Z,76.20
2018-06-28T05:48:35.095Z,74.50
2018-06-28T05:51:03.590Z,72.30
2018-06-28T05:53:32.085Z,70.50
2018-06-28T05:56:00.542Z,68.00
2018-06-28T05:58:29.032Z,67.50
2018-06-28T06:00:57.534Z,66.20
2018-06-28T06:03:26.020Z,64.30
2018-06-28T06:05:54.694Z,65.30
2018-06-28T06:08:23.136Z,63.80
2018-06-28T06:10:51.610Z,63.30
2018-06-28T06:13:20.080Z,60.10
2018-06-28T06:15:48.564Z,59.10
2018-06-28T06:18:17.015Z,58.50
2018-06-28T06:20:45.511Z,59.60
2018-06-28T06:23:14.039Z,58.50
2018-06-28T06:25:42.489Z,55.90
2018-06-28T06:28:10.946Z,56.00
2018-06-28T06:30:39.424Z,55.90
2018-06-28T06:33:07.914Z,54.10
2018-06-28T06:35:36.381Z,52.40
2018-06-28T06:38:04.944Z,52.50
2018-06-28T06:40:33.383Z,54.60
2018-06-28T06:43:01.865Z,51.20
2018-06-28T06:45:30.297Z,48.90
2018-06-28T06:47:58.751Z,49.80
2018-06-28T06:50:27.232Z,49.70
2018-06-28T06:52:55.680Z,49.60
2018-06-28T06:55:24.138Z,44.50
2018-06-28T06:57:52.603Z,42.30
2018-06-28T07:00:21.074Z,40.30
2018-06-28T07:02:49.550Z,42.70
2018-06-28T07:05:18.011Z,41.80
2018-06-28T07:07:46.457Z,38.80
2018-06-28T07:10:14.934Z,38.10
2018-06-28T07:12:43.500Z,36.40
2018-06-28T07:15:12.116Z,35.50
2018-06-28T07:17:40.647Z,36.00
2018-06-28T07:20:09.139Z,35.00
2018-06-28T07:22:37.567Z,35.20
2018-06-28T07:25:06.041Z,36.80
2018-06-28T07:27:34.811Z,37.30
2018-06-28T07:30:03.249Z,37.60
2018-06-28T07:32:31.725Z,35.10
2018-06-28T07:35:00.190Z,34.80
2018-06-28T07:37:28.645Z,35.20
2018-06-28T07:39:57.078Z,33.80
2018-06-28T07:42:25.621Z,32.80
2018-06-28T07:44:54.059Z,32.90
2018-06-28T07:47:22.522Z,30.80
2018-06-28T07:49:51.224Z,29.90
2018-06-28T07:52:19.676Z,31.40
2018-06-28T07:54:48.145Z,31.20
2018-06-28T07:57:16.735Z,29.60
2018-06-28T07:59:45.146Z,28.90
2018-06-28T08:02:13.620Z,29.50
2018-06-28T08:04:42.098Z,30.80
2018-06-28T08:07:10.550Z,29.70
2018-06-28T08:09:39.026Z,28.70
2018-06-28T08:12:07.597Z,29.80
2018-06-28T08:14:36.060Z,29.50
2018-06-28T08:17:04.563Z,28.10
2018-06-28T08:19:33.102Z,26.90
2018-06-28T08:22:01.597Z,27.20
2018-06-28T08:24:30.028Z,26.10
2018-06-28T08:26:58.510Z,26.50
2018-06-28T08:29:26.982Z,27.80
2018-06-28T08:31:55.449Z,27.90
2018-06-28T08:34:23.956Z,23.70
2018-06-28T08:36:52.433Z,26.10
2018-06-28T08:39:20.906Z,25.10
2018-06-28T08:41:49.382Z,27.60
2018-06-28T08:44:17.863Z,24.10
2018-06-28T08:46:46.318Z,24.50
2018-06-28T08:49:14.941Z,23.70
2018-06-28T08:51:43.405Z,24.50
2018-06-28T08:54:11.931Z,25.50
2018-06-28T08:56:40.402Z,24.30
2018-06-28T08:59:08.906Z,25.50
2018-06-28T09:01:37.370Z,24.60
2018-06-28T09:04:05.999Z,22.80
2018-06-28T09:06:34.485Z,20.00
2018-06-28T09:09:03.003Z,23.30
2018-06-28T09:11:31.471Z,25.30
2018-06-28T09:13:59.932Z,23.60
2018-06-28T09:16:28.424Z,23.50
2018-06-28T09:18:56.896Z,24.80
2018-06-28T09:21:25.408Z,24.70
2018-06-28T09:23:53.877Z,22.90
2018-06-28T09:26:22.358Z,22.80
2018-06-28T09:28:50.800Z,24.20
2018-06-28T09:31:19.323Z,22.90
2018-06-28T09:33:47.852Z,21.90
2018-06-28T09:36:16.337Z,22.20
2018-06-28T09:38:44.802Z,23.20
2018-06-28T09:41:13.291Z,21.20
2018-06-28T09:43:41.741Z,21.80
2018-06-28T09:46:10.236Z,25.40
2018-06-28T09:48:38.755Z,23.00
2018-06-28T09:51:07.247Z,22.90
2018-06-28T09:53:35.689Z,22.40
2018-06-28T09:56:04.194Z,22.10
2018-06-28T09:58:32.726Z,21.90
2018-06-28T10:01:01.187Z,22.90
2018-06-28T10:03:30.085Z,21.80
2018-06-28T10:05:58.531Z,20.20
2018-06-28T10:08:26.997Z,18.90
2018-06-28T10:10:55.472Z,18.50
2018-06-28T10:13:23.946Z,20.00
2018-06-28T10:15:52.398Z,19.50
2018-06-28T10:18:20.874Z,19.10
2018-06-28T10:20:49.371Z,19.10
2018-06-28T10:23:17.904Z,19.20
2018-06-28T10:25:46.420Z,21.10
2018-06-28T10:28:14.887Z,20.80
2018-06-28T10:30:43.334Z,18.70
2018-06-28T10:33:11.804Z,17.80
2018-06-28T10:35:40.294Z,18.00
2018-06-28T10:38:08.746Z,17.40
2018-06-28T10:40:37.251Z,18.20
2018-06-28T10:43:05.761Z,19.40
2018-06-28T10:45:34.256Z,20.50
2018-06-28T10:48:02.730Z,19.80
2018-06-28T10:50:31.254Z,18.50
2018-06-28T10:52:59.675Z,20.00
2018-06-28T10:55:28.169Z,19.70
2018-06-28T10:57:56.621Z,18.20
2018-06-28T11:00:25.112Z,19.20
2018-06-28T11:02:53.620Z,20.40
2018-06-28T11:05:22.228Z,19.00
2018-06-28T11:07:50.744Z,18.80
2018-06-28T11:10:19.296Z,17.90
2018-06-28T11:12:47.753Z,17.20
2018-06-28T11:15:16.227Z,17.20
2018-06-28T11:17:44.695Z,17.20
2018-06-28T11:20:13.168Z,16.40
2018-06-28T11:22:41.639Z,15.60
2018-06-28T11:25:12.788Z,14.70
2018-06-28T11:27:41.553Z,16.00
2018-06-28T11:30:10.019Z,15.80
2018-06-28T11:32:38.480Z,15.90
2018-06-28T11:35:06.991Z,18.80
2018-06-28T11:37:35.471Z,21.50
2018-06-28T11:40:04.182Z,20.60
2018-06-28T11:42:32.641Z,20.00
2018-06-28T11:45:01.099Z,22.00
2018-06-28T11:47:29.629Z,20.00
2018-06-28T11:49:58.083Z,17.70
2018-06-28T11:52:26.730Z,17.70
2018-06-28T11:54:55.225Z,17.70
2018-06-28T11:57:23.675Z,20.30
2018-06-28T11:59:52.135Z,22.70
2018-06-28T12:02:20.634Z,23.20
2018-06-28T12:04:49.096Z,24.00
2018-06-28T12:07:17.538Z,26.40
2018-06-28T12:09:45.997Z,23.00
2018-06-28T12:12:14.455Z,19.80
2018-06-28T12:14:42.888Z,17.30
2018-06-28T12:17:11.387Z,17.80
2018-06-28T12:19:39.845Z,19.50
2018-06-28T12:22:08.303Z,20.50
2018-06-28T12:24:36.796Z,19.90
2018-06-28T12:27:05.331Z,18.50
2018-06-28T12:29:33.773Z,18.20
2018-06-28T12:32:02.276Z,16.20
2018-06-28T12:34:30.735Z,15.60
2018-06-28T12:36:59.194Z,19.30
2018-06-28T12:39:27.746Z,16.90
2018-06-28T12:41:56.213Z,14.90
2018-06-28T12:44:24.673Z,15.20
2018-06-28T12:48:59.575Z,15.00
2018-06-28T12:51:39.120Z,14.30
2018-06-28T12:54:07.601Z,15.70
2018-06-28T12:56:37.381Z,15.70
2018-06-28T12:59:07.288Z,13.50
2018-06-28T13:01:35.821Z,14.70
2018-06-28T13:04:04.495Z,15.90
2018-06-28T13:06:32.975Z,16.50
2018-06-28T13:09:02.042Z,15.20
2018-06-28T13:11:30.571Z,14.70
2018-06-28T13:13:59.054Z,13.60
2018-06-28T13:16:28.341Z,14.40
2018-06-28T13:18:56.818Z,14.40
2018-06-28T13:21:25.343Z,14.30
2018-06-28T13:23:53.813Z,15.90
2018-06-28T13:26:22.579Z,17.00
2018-06-28T13:28:51.125Z,19.10
2018-06-28T13:31:19.617Z,18.90
2018-06-28T13:33:48.087Z,16.00
2018-06-28T13:36:16.544Z,14.60
2018-06-28T13:38:45.074Z,15.40
2018-06-28T13:41:13.806Z,16.00
2018-06-28T13:43:42.105Z,15.70
2018-06-28T13:46:10.622Z,14.20
2018-06-28T13:48:39.086Z,16.20
2018-06-28T13:51:07.557Z,16.50
2018-06-28T13:53:36.108Z,17.80
2018-06-28T13:56:04.819Z,18.50
2018-06-28T13:58:33.327Z,17.60
2018-06-28T14:01:01.827Z,15.10
2018-06-28T14:03:30.326Z,15.80
2018-06-28T14:05:58.790Z,15.60
2018-06-28T14:08:27.311Z,15.10
2018-06-28T14:10:55.800Z,14.80
2018-06-28T14:13:24.266Z,17.70
2018-06-28T14:15:52.760Z,20.70
2018-06-28T14:18:21.194Z,22.30
2018-06-28T14:20:49.717Z,20.60
2018-06-28T14:23:18.225Z,17.60
2018-06-28T14:25:46.745Z,17.00
2018-06-28T14:28:15.173Z,15.80
2018-06-28T14:30:43.752Z,15.50
2018-06-28T14:33:12.237Z,16.30
2018-06-28T14:35:40.709Z,15.70
2018-06-28T14:38:09.196Z,17.50
2018-06-28T14:40:37.674Z,20.00
2018-06-28T14:43:06.430Z,21.30
2018-06-28T14:45:34.936Z,18.20
2018-06-28T14:48:03.392Z,18.40
2018-06-28T14:50:31.871Z,19.10
2018-06-28T14:53:00.377Z,20.30
2018-06-28T14:55:29.338Z,18.90
2018-06-28T14:57:57.333Z,16.80
2018-06-28T15:00:25.943Z,16.10
2018-06-28T15:02:54.418Z,17.80
2018-06-28T15:05:22.888Z,19.60
2018-06-28T15:07:51.364Z,21.00
2018-06-28T15:10:19.803Z,20.20
2018-06-28T15:12:48.271Z,22.60
2018-06-28T15:15:16.874Z,20.70
2018-06-28T15:17:45.363Z,18.50
2018-06-28T15:20:13.829Z,18.30
2018-06-28T15:22:42.289Z,16.60
2018-06-28T15:25:10.755Z,16.40
2018-06-28T15:27:39.300Z,16.30
2018-06-28T15:30:07.731Z,17.60
2018-06-28T15:32:36.268Z,17.70
2018-06-28T15:35:04.781Z,17.80
2018-06-28T15:37:33.264Z,18.60
2018-06-28T15:40:01.728Z,16.70
2018-06-28T15:42:30.216Z,17.10
2018-06-28T15:44:58.693Z,16.60
2018-06-28T15:47:27.320Z,17.00
2018-06-28T15:49:55.836Z,16.90
2018-06-28T15:52:24.309Z,17.20
2018-06-28T15:54:52.759Z,17.50
2018-06-28T15:57:21.230Z,16.90
2018-06-28T15:59:49.733Z,16.60
2018-06-28T16:02:18.229Z,18.10
2018-06-28T16:04:46.735Z,17.80
2018-06-28T16:07:15.215Z,16.90
2018-06-28T16:09:43.675Z,16.90
2018-06-28T16:12:12.173Z,17.70
2018-06-28T16:14:40.628Z,17.10
2018-06-28T16:17:09.130Z,17.50
2018-06-28T16:19:37.603Z,16.70
2018-06-28T16:22:06.356Z,17.10
2018-06-28T16:24:34.846Z,17.10
2018-06-28T16:27:03.374Z,17.50
2018-06-28T16:29:31.880Z,18.50
2018-06-28T16:32:00.355Z,17.40
2018-06-28T16:34:28.867Z,18.30
2018-06-28T16:36:57.385Z,18.70
2018-06-28T16:39:25.845Z,19.00
2018-06-28T16:41:54.317Z,21.00
2018-06-28T16:44:22.800Z,19.90
2018-06-28T16:46:51.297Z,21.20
2018-06-28T16:49:19.767Z,19.50
2018-06-28T16:51:48.308Z,19.40
2018-06-28T16:54:16.782Z,19.50
2018-06-28T16:56:45.357Z,19.10
2018-06-28T16:59:13.833Z,19.00
2018-06-28T17:01:42.320Z,18.80
2018-06-28T17:04:10.795Z,18.90
2018-06-28T17:06:39.280Z,19.40
2018-06-28T17:09:08.977Z,20.00
2018-06-28T17:11:37.457Z,20.60
2018-06-28T17:14:06.333Z,19.90
2018-06-28T17:16:34.831Z,19.80
2018-06-28T17:19:03.292Z,21.00
2018-06-28T17:21:31.769Z,21.80
2018-06-28T17:24:00.276Z,22.30
2018-06-28T17:26:28.743Z,22.50
2018-06-28T17:28:57.238Z,23.00
2018-06-28T17:31:25.722Z,24.00
2018-06-28T17:33:54.205Z,25.80
2018-06-28T17:36:22.716Z,26.20
2018-06-28T17:38:51.213Z,26.50
2018-06-28T17:41:19.730Z,25.20
2018-06-28T17:43:48.218Z,25.80
2018-06-28T17:46:16.725Z,25.70
2018-06-28T17:48:45.236Z,26.00
2018-06-28T17:51:13.716Z,25.90
2018-06-28T17:53:42.176Z,26.00
2018-06-28T17:56:11.322Z,25.90
2018-06-28T17:58:39.828Z,26.10
2018-06-28T18:01:09.163Z,26.20
2018-06-28T18:03:38.279Z,26.20
2018-06-28T18:06:06.818Z,25.90
2018-06-28T18:08:35.271Z,26.30
2018-06-28T18:11:03.810Z,26.30
2018-06-28T18:13:32.262Z,27.20
2018-06-28T18:16:00.755Z,27.30
2018-06-28T18:18:30.091Z,27.10
2018-06-28T18:20:58.626Z,27.40
2018-06-28T18:23:27.088Z,27.60
2018-06-28T18:25:55.925Z,27.10
2018-06-28T18:28:24.393Z,27.50
2018-06-28T18:30:52.863Z,28.10
2018-06-28T18:33:21.452Z,28.50
2018-06-28T18:35:50.871Z,28.60
2018-06-28T18:38:19.336Z,29.30
2018-06-28T18:40:47.794Z,28.90
2018-06-28T18:43:16.319Z,29.00
2018-06-28T18:45:44.769Z,29.50
2018-06-28T18:48:13.234Z,29.40
2018-06-28T18:50:41.966Z,30.00
2018-06-28T18:53:10.395Z,30.80
2018-06-28T18:55:38.841Z,30.50
2018-06-28T18:58:07.334Z,31.40
2018-06-28T19:00:35.805Z,32.00
2018-06-28T19:03:06.599Z,31.30
2018-06-28T19:05:35.061Z,31.60
2018-06-28T19:08:03.553Z,31.80
2018-06-28T19:10:37.160Z,32.90
2018-06-28T19:13:07.224Z,32.40
2018-06-28T19:15:40.922Z,32.80
2018-06-28T19:18:09.452Z,32.70
2018-06-28T19:20:37.928Z,33.30
2018-06-28T19:23:12.181Z,33.30
2018-06-28T19:25:40.675Z,33.40
2018-06-28T19:28:09.129Z,34.00
2018-06-28T19:30:42.848Z,34.50
2018-06-28T19:33:11.286Z,34.80
2018-06-28T19:35:39.820Z,35.00
2018-06-28T19:38:08.305Z,35.90
2018-06-28T19:40:42.043Z,36.40
2018-06-28T19:43:10.520Z,36.90
2018-06-28T19:45:39.019Z,37.10
2018-06-28T19:48:07.499Z,37.60
2018-06-28T19:50:41.225Z,38.30
2018-06-28T19:53:12.470Z,38.50
2018-06-28T19:55:40.948Z,38.70
2018-06-28T19:58:09.476Z,38.00
2018-06-28T20:00:43.310Z,37.70
2018-06-28T20:03:17.012Z,38.10
2018-06-28T20:05:45.506Z,38.40
2018-06-28T20:08:17.096Z,38.70
2018-06-28T20:10:45.625Z,38.60
2018-06-28T20:13:19.364Z,39.40
2018-06-28T20:15:55.099Z,39.80
2018-06-28T20:18:28.804Z,41.30
2018-06-28T20:20:58.451Z,42.10
2018-06-28T20:23:28.200Z,42.40
2018-06-28T20:25:56.542Z,42.30
2018-06-28T20:28:30.363Z,42.70
2018-06-28T20:31:04.138Z,42.80
2018-06-28T20:33:37.945Z,42.80
2018-06-28T20:36:07.363Z,43.90
2018-06-28T20:38:35.825Z,44.30
2018-06-28T20:41:04.305Z,44.30
2018-06-28T20:43:32.789Z,44.50
2018-06-28T20:46:01.283Z,45.90
2018-06-28T20:48:29.817Z,47.00
2018-06-28T20:50:58.377Z,47.00
2018-06-28T20:53:26.799Z,47.70
2018-06-28T20:55:55.454Z,48.50
2018-06-28T20:58:23.909Z,47.60
2018-06-28T21:00:52.388Z,48.10
2018-06-28T21:03:20.915Z,48.70
2018-06-28T21:05:49.352Z,49.60
2018-06-28T21:08:17.844Z,49.90
2018-06-28T21:10:46.329Z,50.80
2018-06-28T21:13:14.793Z,51.30
2018-06-28T21:15:43.258Z,53.10
2018-06-28T21:18:11.826Z,54.30
2018-06-28T21:20:40.295Z,53.20
2018-06-28T21:23:08.783Z,52.70
2018-06-28T21:25:37.237Z,52.70
2018-06-28T21:28:05.900Z,52.90
2018-06-28T21:30:34.346Z,53.60
2018-06-28T21:33:02.834Z,55.00
2018-06-28T21:35:31.292Z,56.70
2018-06-28T21:37:59.857Z,57.60
2018-06-28T21:40:28.324Z,59.60
2018-06-28T21:42:56.746Z,58.60
2018-06-28T21:45:25.188Z,58.60
2018-06-28T21:47:53.647Z,59.80
2018-06-28T21:50:22.064Z,58.70
2018-06-28T21:52:50.640Z,58.60
2018-06-28T21:55:19.143Z,58.90
2018-06-28T21:57:47.597Z,59.00
2018-06-28T22:00:29.502Z,59.90
2018-06-28T22:02:59.621Z,59.60
2018-06-28T22:05:28.264Z,60.00
2018-06-28T22:07:57.142Z,59.50
2018-06-28T22:10:25.697Z,60.00
2018-06-28T22:12:55.247Z,60.20
2018-06-28T22:15:25.958Z,59.00
2018-06-28T22:18:02.015Z,59.00
2018-06-28T22:20:32.129Z,59.00
2018-06-28T22:23:01.016Z,60.30
2018-06-28T22:25:30.458Z,61.50
2018-06-28T22:27:58.972Z,60.10
2018-06-28T22:30:27.432Z,60.40
2018-06-28T22:32:55.882Z,59.70
2018-06-28T22:35:24.357Z,60.10
2018-06-28T22:37:53.007Z,61.00
2018-06-28T22:40:21.450Z,61.80
2018-06-28T22:42:49.988Z,62.10
2018-06-28T22:45:18.445Z,61.60
2018-06-28T22:47:46.920Z,61.10
2018-06-28T22:50:15.412Z,61.60
2018-06-28T22:52:43.877Z,62.20
2018-06-28T22:55:12.322Z,61.00
2018-06-28T22:57:40.762Z,60.90
2018-06-28T23:00:09.255Z,60.00
2018-06-28T23:02:38.885Z,59.60
2018-06-28T23:05:09.050Z,59.10
2018-06-28T23:07:37.520Z,58.60
2018-06-28T23:10:06.275Z,58.50
2018-06-28T23:12:34.781Z,58.50
2018-06-28T23:15:03.279Z,58.50
2018-06-28T23:17:31.751Z,58.50
2018-06-28T23:20:00.202Z,58.90
2018-06-28T23:22:39.645Z,59.30
2018-06-28T23:25:08.122Z,59.80
2018-06-28T23:27:37.622Z,59.70
2018-06-28T23:30:06.115Z,59.80
2018-06-28T23:32:34.590Z,59.20
2018-06-28T23:35:03.044Z,60.00
2018-06-28T23:37:31.553Z,60.00
2018-06-28T23:40:00.130Z,60.70
2018-06-28T23:42:28.623Z,61.00
2018-06-28T23:44:57.077Z,61.70
2018-06-28T23:47:25.588Z,61.20
2018-06-28T23:49:54.047Z,60.90
2018-06-28T23:52:22.653Z,60.70
2018-06-28T23:54:51.133Z,60.00
2018-06-28T23:57:19.853Z,60.60
2018-06-28T23:59:48.328Z,59.70
